Shuya, Russia
Current Conditions -  °F | °C
As of 8:30 AM on Thursday 27 Nov 2014 (Local Time) from UUDL Reporting Station
Haze Haze  
Wind Chill: 19°   Ceiling: 1000
Heat Index: 25°   Visibility: 2.8mi
Dew Point: 23°   Wind: 4mph
Humidity: 93%   Direction: 260°W
Pressure: 30.42"   Gusts: NA
Location:  56.85°N, 41.36°E
Report Text: UUDL 270530Z 26002MPS 4500 BR OVC010 M04/M05 Q1030 NOSIG RMKQFE764 23000060
Loading
Personal Weather Stations






























Interactive Weather Map New forecast layout! Learn more

10-Day Weather Forecast

Advertisements
Track Severe Weather on mobile